This is the latest recevied weather packets stored in our database for station/object DF7ER-12. If no packets are shown the sender has not sent any weather packets the latest 10 day(s).
| Time | Temp. | Humidity | Pressure | Rain* | Wind** | Luminosity | Snow |
|---|---|---|---|---|---|---|---|
| 1777528300 | 11.11° C | 63% | 1022.3 hPa | - | - | - | - |
| 1777528000 | 10.56° C | 63% | 1022.2 hPa | - | - | - | - |
| 1777527699 | 10° C | 66% | 1022.2 hPa | - | - | - | - |
| 1777527399 | 10° C | 64% | 1022.3 hPa | - | - | - | - |
| 1777527100 | 10° C | 66% | 1022.4 hPa | - | - | - | - |
| 1777526799 | 9.44° C | 69% | 1022.4 hPa | - | - | - | - |
| 1777526500 | 8.33° C | 72% | 1022.3 hPa | - | - | - | - |
| 1777526200 | 8.33° C | 71% | 1022.3 hPa | - | - | - | - |
| 1777525900 | 7.78° C | 73% | 1022.3 hPa | - | - | - | - |
| 1777525599 | 7.22° C | 73% | 1022.2 hPa | - | - | - | - |
| 1777525300 | 7.22° C | 74% | 1022.4 hPa | - | - | - | - |
| 1777524999 | 7.22° C | 73% | 1022.4 hPa | - | - | - | - |
| 1777524700 | 6.11° C | 74% | 1022.3 hPa | - | - | - | - |
| 1777524400 | 6.67° C | 73% | 1022.2 hPa | - | - | - | - |
| 1777524100 | 6.67° C | 72% | 1022.2 hPa | - | - | - | - |
| 1777523799 | 6.11° C | 74% | 1022 hPa | - | - | - | - |
| 1777523500 | 6.11° C | 74% | 1021.9 hPa | - | - | - | - |
| 1777523200 | 6.11° C | 74% | 1022 hPa | - | - | - | - |
| 1777522899 | 6.11° C | 74% | 1021.9 hPa | - | - | - | - |
| 1777522599 | 5.56° C | 74% | 1021.8 hPa | - | - | - | - |
| 1777522300 | 6.11° C | 73% | 1021.8 hPa | - | - | - | - |
| 1777522000 | 5.56° C | 74% | 1021.8 hPa | - | - | - | - |
| 1777521700 | 6.11° C | 73% | 1021.8 hPa | - | - | - | - |
| 1777521399 | 6.11° C | 73% | 1021.8 hPa | - | - | - | - |
| 1777521100 | 6.11° C | 73% | 1021.8 hPa | - | - | - | - |
* Rain since midnight (hover to see other rain measurements)
** Current wind speed in m/s (hover to see current wind gust speed)